Time;durP1;ratioP1;P1;durP2;ratioP2;P2;SDS_P1;SDS_P2;PMS_P1;PMS_P2;Temp;Humidity;BMP_temperature;BMP_pressure;BME280_temperature;BME280_humidity;BME280_pressure;Samples;Min_cycle;Max_cycle;Signal;HPM_P1;HPM_P2
2023/04/17 00:02:03;;;;;;;43.97;28.02;;;10.20;99.90;;;;;;4989263;28;20252;-45
2023/04/17 00:04:29;;;;;;;45.47;27.05;;;10.20;99.90;;;;;;4989570;28;20208;-45
2023/04/17 00:06:55;;;;;;;44.28;27.40;;;10.10;99.90;;;;;;4988715;28;20212;-45
2023/04/17 00:09:20;;;;;;;45.78;27.05;;;10.20;99.90;;;;;;4989260;28;20225;-45
2023/04/17 00:11:46;;;;;;;44.20;25.33;;;10.10;99.90;;;;;;4989238;28;20238;-44
2023/04/17 00:14:12;;;;;;;40.75;25.77;;;10.20;99.90;;;;;;4988950;28;20172;-45
2023/04/17 00:16:38;;;;;;;44.92;25.83;;;;;;;;;;4989396;28;20184;-45
2023/04/17 00:19:04;;;;;;;45.55;26.23;;;10.20;99.90;;;;;;4989157;28;20222;-45
2023/04/17 00:21:31;;;;;;;42.67;28.30;;;;;;;;;;4988972;28;20181;-45
2023/04/17 00:23:56;;;;;;;49.05;27.27;;;10.20;99.90;;;;;;4968972;28;20162;-45
2023/04/17 00:26:22;;;;;;;42.83;26.00;;;10.20;99.90;;;;;;4950386;28;20225;-45
2023/04/17 00:28:49;;;;;;;41.10;26.60;;;10.30;99.90;;;;;;4950647;28;20193;-45
2023/04/17 00:31:15;;;;;;;49.13;26.65;;;10.20;99.90;;;;;;4951310;28;20166;-47
2023/04/17 00:33:40;;;;;;;41.88;25.92;;;10.10;99.90;;;;;;4956628;28;20174;-46
2023/04/17 00:36:07;;;;;;;45.22;27.60;;;10.10;99.90;;;;;;4956719;28;20182;-45
2023/04/17 00:38:33;;;;;;;53.45;28.05;;;10.30;99.90;;;;;;4956873;28;20544;-46
2023/04/17 00:40:59;;;;;;;51.42;27.98;;;;;;;;;;4956570;28;20166;-45
2023/04/17 00:43:25;;;;;;;44.92;27.00;;;;;;;;;;4956488;28;20204;-45
2023/04/17 00:45:52;;;;;;;48.38;27.13;;;10.20;99.90;;;;;;4956875;28;20606;-45
2023/04/17 00:48:19;;;;;;;49.28;28.50;;;10.30;99.90;;;;;;4956816;28;20251;-46
2023/04/17 00:50:46;;;;;;;46.30;27.17;;;10.20;99.90;;;;;;4956549;28;20676;-45
2023/04/17 00:53:12;;;;;;;51.20;28.08;;;10.10;99.90;;;;;;4963938;28;20185;-45
2023/04/17 00:55:39;;;;;;;44.03;28.95;;;10.10;99.90;;;;;;4995081;28;20173;-45
2023/04/17 00:58:05;;;;;;;46.67;28.48;;;;;;;;;;4995044;28;20167;-45
2023/04/17 01:00:31;;;;;;;50.22;29.88;;;;;;;;;;4994975;28;20180;-45
2023/04/17 01:02:57;;;;;;;48.13;28.13;;;10.30;99.90;;;;;;4995381;28;20169;-45
2023/04/17 01:05:23;;;;;;;49.60;29.65;;;;;;;;;;4994850;28;20196;-45
2023/04/17 01:07:49;;;;;;;48.03;28.20;;;10.30;99.90;;;;;;4995368;28;20625;-44
2023/04/17 01:10:14;;;;;;;44.08;28.15;;;10.30;99.90;;;;;;4994785;28;20217;-45
2023/04/17 01:12:45;;;;;;;50.38;29.50;;;10.20;99.90;;;;;;4995175;28;20274;-45
2023/04/17 01:15:11;;;;;;;53.85;29.67;;;10.20;99.90;;;;;;4994932;28;20699;-45
2023/04/17 01:17:37;;;;;;;56.45;29.17;;;;;;;;;;4994759;28;20260;-45
2023/04/17 01:20:10;;;;;;;45.22;27.65;;;10.10;99.90;;;;;;4994871;28;20288;-45
2023/04/17 01:22:36;;;;;;;42.40;29.45;;;10.20;99.90;;;;;;4993676;28;20172;-45
2023/04/17 01:25:02;;;;;;;47.67;28.83;;;10.10;99.90;;;;;;4975581;28;20189;-45
2023/04/17 01:27:28;;;;;;;54.95;27.45;;;10.10;99.90;;;;;;4975473;28;20205;-45
2023/04/17 01:29:53;;;;;;;43.05;26.65;;;10.30;99.90;;;;;;4993858;28;20648;-45
2023/04/17 01:32:19;;;;;;;49.95;28.88;;;10.10;99.90;;;;;;4995183;28;20309;-45
2023/04/17 01:34:45;;;;;;;43.28;27.67;;;;;;;;;;4994702;28;20637;-45
2023/04/17 01:37:11;;;;;;;46.58;29.25;;;10.20;99.90;;;;;;4994856;28;20172;-45
2023/04/17 01:39:37;;;;;;;48.15;29.80;;;;;;;;;;4994539;28;20685;-45
2023/04/17 01:42:02;;;;;;;50.70;28.80;;;10.30;99.90;;;;;;4994905;28;20581;-45
2023/04/17 01:44:28;;;;;;;48.65;27.88;;;10.20;99.90;;;;;;4988782;28;20181;-45
2023/04/17 01:46:54;;;;;;;44.60;28.42;;;;;;;;;;4990878;28;20239;-45
2023/04/17 01:49:20;;;;;;;52.88;28.75;;;;;;;;;;4991964;28;20508;-45
2023/04/17 01:51:45;;;;;;;46.90;30.30;;;10.20;99.90;;;;;;4991311;28;20249;-45
2023/04/17 01:54:11;;;;;;;52.60;31.45;;;10.20;99.90;;;;;;4991143;28;20172;-45
2023/04/17 01:56:37;;;;;;;49.28;28.90;;;10.10;99.90;;;;;;4991440;28;20180;-44
2023/04/17 01:59:02;;;;;;;47.47;29.73;;;10.20;99.90;;;;;;4991227;28;20640;-44
2023/04/17 02:01:28;;;;;;;46.17;28.88;;;10.10;99.90;;;;;;4991109;28;20173;-44
2023/04/17 02:03:53;;;;;;;48.42;30.10;;;10.20;99.90;;;;;;4981968;28;20196;-45
2023/04/17 02:06:19;;;;;;;46.20;27.85;;;10.10;99.90;;;;;;4972244;28;20205;-45
2023/04/17 02:08:44;;;;;;;53.58;28.58;;;10.20;99.90;;;;;;4971429;28;20296;-45
2023/04/17 02:11:12;;;;;;;50.67;28.63;;;;;;;;;;4971595;28;20186;-45
2023/04/17 02:13:37;;;;;;;47.08;26.98;;;10.10;99.90;;;;;;4971440;28;20625;-45
2023/04/17 02:16:03;;;;;;;52.25;30.35;;;10.20;99.90;;;;;;4971500;28;20170;-45
2023/04/17 02:18:29;;;;;;;49.97;28.23;;;;;;;;;;4971593;28;20162;-44
2023/04/17 02:20:55;;;;;;;48.10;30.05;;;10.10;99.90;;;;;;4971388;28;20219;-44
2023/04/17 02:23:20;;;;;;;47.78;27.73;;;10.10;99.90;;;;;;4971715;28;20181;-45
2023/04/17 02:25:46;;;;;;;49.10;28.00;;;10.00;99.90;;;;;;4971254;28;20270;-45
2023/04/17 02:28:11;;;;;;;54.47;30.63;;;10.10;99.90;;;;;;4971355;28;21172;-45
2023/04/17 02:30:37;;;;;;;53.90;30.15;;;10.00;99.90;;;;;;4971291;28;20603;-45
2023/04/17 02:33:02;;;;;;;44.50;28.98;;;10.20;99.90;;;;;;4972990;28;20178;-45
2023/04/17 02:35:30;;;;;;;49.35;27.58;;;10.10;99.90;;;;;;4990320;28;20180;-45
2023/04/17 02:37:56;;;;;;;47.40;29.02;;;10.20;99.90;;;;;;4990631;28;20169;-46
2023/04/17 02:40:22;;;;;;;49.75;30.23;;;10.10;99.90;;;;;;4990774;28;20173;-45
2023/04/17 02:42:47;;;;;;;46.47;27.85;;;10.00;99.90;;;;;;4990754;28;20183;-45
2023/04/17 02:45:13;;;;;;;52.15;29.33;;;10.10;99.90;;;;;;4990453;28;20205;-45
2023/04/17 02:47:39;;;;;;;55.33;31.40;;;10.20;99.90;;;;;;4990220;28;20204;-45
2023/04/17 02:50:05;;;;;;;49.95;30.58;;;10.10;99.90;;;;;;4988996;28;20172;-45
2023/04/17 02:52:32;;;;;;;53.75;28.70;;;10.10;99.90;;;;;;4990142;28;20226;-44
2023/04/17 02:55:03;;;;;;;51.80;31.08;;;10.10;99.90;;;;;;5044596;28;20170;-46
2023/04/17 02:57:29;;;;;;;52.28;31.27;;;;;;;;;;5072291;28;20162;-44
2023/04/17 02:59:54;;;;;;;61.25;30.85;;;10.10;99.90;;;;;;5072376;28;20174;-45
2023/04/17 03:02:20;;;;;;;50.30;31.02;;;10.10;99.90;;;;;;5072774;28;20172;-45
2023/04/17 03:04:49;;;;;;;53.83;32.08;;;10.10;99.90;;;;;;5003653;28;20268;-45
2023/04/17 03:07:22;;;;;;;49.53;32.00;;;10.00;99.90;;;;;;4990052;28;20212;-45
2023/04/17 03:09:48;;;;;;;56.83;31.38;;;9.90;99.90;;;;;;4990167;28;20254;-45
2023/04/17 03:12:15;;;;;;;57.65;33.65;;;9.80;99.90;;;;;;4981734;28;20220;-45
2023/04/17 03:14:41;;;;;;;58.33;34.38;;;9.90;99.90;;;;;;4982376;28;20179;-44
2023/04/17 03:17:08;;;;;;;56.63;33.65;;;10.00;99.90;;;;;;4990128;28;20267;-45
2023/04/17 03:19:34;;;;;;;56.88;33.33;;;;;;;;;;4989908;28;20226;-47
2023/04/17 03:22:01;;;;;;;61.22;35.05;;;10.00;99.90;;;;;;4989933;28;20173;-45
2023/04/17 03:24:26;;;;;;;58.40;34.88;;;9.90;99.90;;;;;;4990066;28;20267;-46
2023/04/17 03:26:52;;;;;;;56.35;32.92;;;;;;;;;;4990117;28;20292;-45
2023/04/17 03:29:18;;;;;;;59.97;34.53;;;9.80;99.90;;;;;;4990426;28;20173;-46
2023/04/17 03:31:44;;;;;;;57.72;32.97;;;9.90;99.90;;;;;;4989785;28;20168;-46
2023/04/17 03:34:09;;;;;;;64.38;36.30;;;9.90;99.90;;;;;;4978879;28;20162;-47
2023/04/17 03:36:35;;;;;;;63.35;34.03;;;;;;;;;;4970230;28;20542;-47
2023/04/17 03:39:01;;;;;;;56.05;34.72;;;9.80;99.90;;;;;;4970704;28;20208;-45
2023/04/17 03:41:27;;;;;;;60.25;34.47;;;9.90;99.90;;;;;;4970195;28;20181;-44
2023/04/17 03:43:53;;;;;;;56.55;35.05;;;;;;;;;;4970102;28;20649;-45
2023/04/17 03:46:18;;;;;;;61.25;35.70;;;9.80;99.90;;;;;;4970282;28;20213;-44
2023/04/17 03:48:44;;;;;;;61.35;34.67;;;9.60;99.90;;;;;;4970328;28;20180;-44
2023/04/17 03:51:09;;;;;;;60.80;33.97;;;9.80;99.90;;;;;;4970312;28;20528;-44
2023/04/17 03:53:35;;;;;;;60.47;34.53;;;9.80;99.90;;;;;;4969923;28;20169;-45
2023/04/17 03:56:01;;;;;;;62.78;35.97;;;;;;;;;;4969876;28;20251;-45
2023/04/17 03:58:26;;;;;;;63.33;36.65;;;9.80;99.90;;;;;;4969915;28;20170;-44
2023/04/17 04:00:57;;;;;;;60.75;36.00;;;;;;;;;;4969817;28;20177;-45
2023/04/17 04:03:23;;;;;;;57.38;34.85;;;;;;;;;;4969145;28;20276;-45
2023/04/17 04:05:48;;;;;;;61.90;38.25;;;9.70;99.90;;;;;;4969695;28;20566;-45
2023/04/17 04:08:14;;;;;;;62.53;36.65;;;;;;;;;;4969363;28;20213;-45
2023/04/17 04:10:43;;;;;;;69.68;38.17;;;9.70;99.90;;;;;;4969739;28;20581;-45
2023/04/17 04:13:08;;;;;;;59.63;32.53;;;9.60;99.90;;;;;;4969632;28;20177;-45
2023/04/17 04:15:34;;;;;;;66.43;37.08;;;9.80;99.90;;;;;;4969549;28;20268;-45
2023/04/17 04:17:59;;;;;;;69.30;37.10;;;9.70;99.90;;;;;;4969744;28;20169;-45
2023/04/17 04:20:25;;;;;;;66.57;36.72;;;;;;;;;;4969660;28;20162;-45
2023/04/17 04:22:51;;;;;;;66.20;36.78;;;9.70;99.90;;;;;;4970272;28;20180;-45
2023/04/17 04:25:16;;;;;;;56.72;35.60;;;9.70;99.90;;;;;;4969509;28;20634;-45
2023/04/17 04:27:48;;;;;;;60.78;35.08;;;9.70;99.90;;;;;;4969397;28;20664;-46
2023/04/17 04:30:15;;;;;;;60.17;36.45;;;9.70;99.90;;;;;;4969718;28;20173;-45
2023/04/17 04:32:42;;;;;;;65.85;36.20;;;9.70;99.90;;;;;;4969920;28;20672;-45
2023/04/17 04:35:08;;;;;;;71.13;38.08;;;9.70;99.90;;;;;;4988437;28;20625;-45
2023/04/17 04:37:34;;;;;;;73.72;38.85;;;9.70;99.90;;;;;;4989032;28;20184;-45
2023/04/17 04:40:09;;;;;;;64.22;37.38;;;9.80;99.90;;;;;;4988627;28;20527;-44
2023/04/17 04:42:35;;;;;;;67.93;39.25;;;9.70;99.90;;;;;;4988754;28;20528;-45
2023/04/17 04:45:01;;;;;;;68.80;38.95;;;9.60;99.90;;;;;;4988722;28;20193;-45
2023/04/17 04:47:27;;;;;;;74.25;40.03;;;;;;;;;;4988671;28;20676;-44
2023/04/17 04:49:53;;;;;;;64.68;38.67;;;9.60;99.90;;;;;;4988723;28;20173;-45
2023/04/17 04:52:19;;;;;;;68.55;38.80;;;;;;;;;;4989112;28;20180;-45
2023/04/17 04:54:45;;;;;;;67.50;38.17;;;9.60;99.90;;;;;;4988669;28;20177;-45
2023/04/17 04:57:10;;;;;;;70.97;38.47;;;9.70;99.90;;;;;;4988842;28;20222;-44
2023/04/17 04:59:36;;;;;;;75.25;41.17;;;9.70;99.90;;;;;;4988534;28;20211;-45
2023/04/17 05:02:01;;;;;;;65.50;37.13;;;9.60;99.90;;;;;;4988904;28;20173;-44
2023/04/17 05:04:27;;;;;;;68.90;39.65;;;;;;;;;;4972298;28;20771;-45
2023/04/17 05:06:53;;;;;;;70.68;38.20;;;9.70;99.90;;;;;;4969087;28;20747;-46
2023/04/17 05:09:18;;;;;;;62.13;38.33;;;9.70;99.90;;;;;;4969203;28;20693;-45
2023/04/17 05:11:44;;;;;;;65.93;38.25;;;9.70;99.90;;;;;;4968832;28;20641;-45
2023/04/17 05:14:09;;;;;;;62.28;37.95;;;9.60;99.90;;;;;;4969297;28;20173;-46
2023/04/17 05:16:35;;;;;;;75.35;39.10;;;9.70;99.90;;;;;;4969311;28;20177;-46
2023/04/17 05:19:01;;;;;;;73.53;40.30;;;9.60;99.90;;;;;;4971883;28;20173;-45
2023/04/17 05:21:26;;;;;;;68.47;38.63;;;9.80;99.90;;;;;;4972304;28;20177;-45
2023/04/17 05:23:52;;;;;;;65.20;38.17;;;9.70;99.90;;;;;;4972063;28;20743;-45
2023/04/17 05:26:20;;;;;;;67.80;38.10;;;9.60;99.90;;;;;;4972465;28;20240;-45
2023/04/17 05:28:46;;;;;;;68.47;39.55;;;9.70;99.90;;;;;;4972307;28;20182;-45
2023/04/17 05:31:12;;;;;;;64.90;38.80;;;9.80;99.90;;;;;;4971970;28;20691;-45
2023/04/17 05:33:38;;;;;;;66.15;39.78;;;9.80;99.90;;;;;;4982110;28;20263;-45
2023/04/17 05:36:04;;;;;;;66.85;39.42;;;9.80;99.90;;;;;;4991515;28;20672;-45
2023/04/17 05:38:30;;;;;;;70.78;37.72;;;9.80;99.90;;;;;;4991716;28;20173;-44
2023/04/17 05:40:56;;;;;;;63.30;37.33;;;9.80;99.90;;;;;;4991670;28;20173;-45
2023/04/17 05:43:22;;;;;;;59.08;36.38;;;;;;;;;;4991518;28;20696;-45
2023/04/17 05:45:47;;;;;;;71.53;38.20;;;9.70;99.90;;;;;;4991523;28;20192;-45
2023/04/17 05:48:13;;;;;;;73.25;39.90;;;9.80;99.90;;;;;;4991530;28;20169;-45
2023/04/17 05:50:39;;;;;;;64.63;38.22;;;9.70;99.90;;;;;;4991227;28;20652;-44
2023/04/17 05:53:05;;;;;;;63.17;38.47;;;9.90;99.90;;;;;;4991237;28;20187;-45
2023/04/17 05:55:31;;;;;;;65.97;40.15;;;9.90;99.90;;;;;;4991225;28;20200;-44
2023/04/17 05:57:56;;;;;;;68.57;40.38;;;10.00;99.90;;;;;;4991313;28;20184;-45
2023/04/17 06:00:23;;;;;;;62.35;38.17;;;10.10;99.90;;;;;;4991164;28;20697;-45
2023/04/17 06:02:49;;;;;;;58.65;35.03;;;9.90;99.90;;;;;;4987760;28;20199;-44
2023/04/17 06:05:16;;;;;;;60.03;37.33;;;10.10;99.90;;;;;;4971427;28;20175;-44
2023/04/17 06:07:42;;;;;;;60.83;37.78;;;10.00;99.90;;;;;;4971760;28;20213;-44
2023/04/17 06:10:09;;;;;;;60.88;37.83;;;10.10;99.90;;;;;;4970630;28;20213;-44
2023/04/17 06:12:35;;;;;;;57.40;36.00;;;10.00;99.90;;;;;;4971718;28;20278;-44
2023/04/17 06:15:02;;;;;;;59.83;36.85;;;10.10;99.90;;;;;;4971823;28;20249;-45
2023/04/17 06:17:29;;;;;;;61.45;36.53;;;10.20;99.90;;;;;;4971842;28;20227;-45
2023/04/17 06:19:54;;;;;;;68.75;37.80;;;10.10;99.90;;;;;;4971769;28;20172;-45
2023/04/17 06:22:20;;;;;;;57.92;36.70;;;;;;;;;;4972093;28;20260;-45
2023/04/17 06:24:46;;;;;;;63.28;37.33;;;10.20;99.90;;;;;;4971391;28;20666;-44
2023/04/17 06:27:11;;;;;;;61.75;33.90;;;10.10;99.90;;;;;;4970089;28;20237;-45
2023/04/17 06:29:37;;;;;;;54.78;35.53;;;;;;;;;;4970522;28;20193;-45
2023/04/17 06:32:04;;;;;;;60.58;35.45;;;10.10;99.90;;;;;;4971282;28;20535;-45
2023/04/17 06:34:29;;;;;;;56.03;34.05;;;10.10;99.90;;;;;;4987566;28;20540;-45
2023/04/17 06:36:55;;;;;;;57.22;34.95;;;10.10;99.90;;;;;;4990693;28;20226;-45
2023/04/17 06:39:21;;;;;;;54.00;34.53;;;10.20;99.90;;;;;;4990904;28;20222;-45
2023/04/17 06:41:49;;;;;;;61.33;35.22;;;;;;;;;;4990828;28;20537;-45
2023/04/17 06:44:15;;;;;;;65.10;37.38;;;;;;;;;;4990669;28;20173;-45
2023/04/17 06:46:40;;;;;;;55.70;34.50;;;10.20;99.90;;;;;;4990334;28;20204;-44
2023/04/17 06:49:06;;;;;;;54.78;35.67;;;;;;;;;;4990341;28;20560;-45
2023/04/17 06:51:32;;;;;;;55.97;36.67;;;;;;;;;;4990612;28;20172;-45
2023/04/17 06:53:58;;;;;;;60.40;36.13;;;10.30;99.90;;;;;;4990460;28;20265;-45
2023/04/17 06:56:24;;;;;;;50.90;31.63;;;10.50;99.90;;;;;;4990241;28;20177;-45
2023/04/17 06:58:50;;;;;;;45.47;31.50;;;10.50;99.90;;;;;;4990690;28;20260;-45
2023/04/17 07:01:16;;;;;;;56.80;34.47;;;10.60;99.90;;;;;;4990536;28;20165;-45
2023/04/17 07:03:42;;;;;;;51.00;34.28;;;10.60;99.90;;;;;;4977609;28;20185;-43
2023/04/17 07:06:08;;;;;;;48.30;31.83;;;10.60;99.90;;;;;;4970807;28;20676;-43
2023/04/17 07:08:34;;;;;;;49.65;32.65;;;;;;;;;;4970659;28;20236;-43
2023/04/17 07:11:00;;;;;;;50.40;33.28;;;10.70;99.90;;;;;;4971824;28;20251;-44
2023/04/17 07:13:30;;;;;;;49.90;32.80;;;10.70;99.90;;;;;;4968459;28;20181;-42
2023/04/17 07:15:56;;;;;;;47.75;32.60;;;10.60;99.90;;;;;;4969318;28;20181;-47
2023/04/17 07:18:22;;;;;;;48.80;30.83;;;;;;;;;;4986840;28;20197;-44
2023/04/17 07:20:48;;;;;;;47.40;33.08;;;10.80;99.90;;;;;;4969646;28;20252;-44
2023/04/17 07:23:14;;;;;;;46.65;31.60;;;10.70;99.90;;;;;;4968958;28;20625;-46
2023/04/17 07:25:39;;;;;;;50.33;32.92;;;11.00;99.90;;;;;;4969157;28;20230;-48
2023/04/17 07:28:06;;;;;;;46.03;31.55;;;;;;;;;;4968797;28;20664;-48
2023/04/17 07:30:32;;;;;;;47.05;31.83;;;;;;;;;;4968775;28;20182;-44
2023/04/17 07:32:58;;;;;;;47.95;32.53;;;;;;;;;;4968058;28;20330;-45
2023/04/17 07:35:24;;;;;;;45.25;32.97;;;;;;;;;;4968568;28;20177;-44
2023/04/17 07:37:50;;;;;;;48.05;33.53;;;;;;;;;;4969368;28;20165;-43
2023/04/17 07:40:16;;;;;;;48.13;32.78;;;11.20;99.90;;;;;;4968879;28;20677;-44
2023/04/17 07:42:42;;;;;;;51.70;34.05;;;11.30;99.90;;;;;;4967850;28;20732;-45
2023/04/17 07:45:09;;;;;;;46.75;31.67;;;11.50;99.90;;;;;;4968608;28;20266;-43
2023/04/17 07:47:34;;;;;;;44.67;31.15;;;;;;;;;;4968500;28;20204;-45
2023/04/17 07:50:00;;;;;;;44.78;32.50;;;;;;;;;;4968735;28;20173;-45
2023/04/17 07:52:26;;;;;;;46.40;31.55;;;11.30;99.90;;;;;;4968592;28;20188;-45
2023/04/17 07:54:51;;;;;;;41.35;30.58;;;11.20;99.90;;;;;;4968621;28;20201;-42
2023/04/17 07:57:18;;;;;;;41.83;29.80;;;;;;;;;;4968677;28;20173;-45
2023/04/17 07:59:44;;;;;;;44.17;29.92;;;11.30;99.90;;;;;;4968475;28;20248;-45
2023/04/17 08:02:10;;;;;;;42.35;30.40;;;;;;;;;;4970522;28;20548;-44
2023/04/17 08:04:38;;;;;;;41.17;29.40;;;;;;;;;;4987640;28;20255;-44
2023/04/17 08:07:05;;;;;;;37.78;28.50;;;;;;;;;;4987797;28;20204;-44
2023/04/17 08:09:32;;;;;;;36.58;25.85;;;;;;;;;;4987695;28;20220;-44
2023/04/17 08:11:57;;;;;;;36.67;28.20;;;11.60;99.90;;;;;;4987453;28;20208;-45
2023/04/17 08:14:23;;;;;;;33.58;23.92;;;;;;;;;;4987691;28;20217;-46
2023/04/17 08:16:49;;;;;;;31.60;21.88;;;11.60;99.90;;;;;;4988168;28;20181;-46
2023/04/17 08:19:15;;;;;;;29.08;21.83;;;;;;;;;;4987899;28;20534;-45
2023/04/17 08:21:41;;;;;;;26.70;20.58;;;;;;;;;;4987612;28;20797;-44
2023/04/17 08:24:07;;;;;;;26.35;18.83;;;11.90;99.90;;;;;;4987422;28;20248;-44
2023/04/17 08:26:32;;;;;;;26.35;18.30;;;11.90;99.90;;;;;;4987365;28;20201;-44
2023/04/17 08:29:00;;;;;;;25.52;18.48;;;11.90;99.90;;;;;;4987466;28;20169;-44
2023/04/17 08:31:27;;;;;;;27.02;19.30;;;12.00;99.90;;;;;;4986241;28;20177;-45
2023/04/17 08:33:53;;;;;;;26.63;13.50;;;;;;;;;;4987066;28;20182;-44
2023/04/17 08:36:19;;;;;;;25.20;18.20;;;;;;;;;;4986351;28;20276;-44
2023/04/17 08:38:46;;;;;;;26.92;22.88;;;11.70;99.90;;;;;;4986431;28;20416;-44
2023/04/17 08:41:19;;;;;;;28.35;18.83;;;11.70;99.90;;;;;;4987404;28;20172;-45
2023/04/17 08:43:49;;;;;;;26.02;18.20;;;11.90;99.90;;;;;;4987420;28;20658;-45
2023/04/17 08:46:15;;;;;;;25.27;19.10;;;11.80;99.90;;;;;;4987501;28;20205;-44
2023/04/17 08:48:41;;;;;;;23.85;18.83;;;12.30;99.90;;;;;;4987606;28;20254;-44
2023/04/17 08:51:07;;;;;;;23.48;17.10;;;12.30;99.90;;;;;;4987497;28;20914;-45
2023/04/17 08:53:32;;;;;;;24.02;17.88;;;12.40;99.90;;;;;;4989155;28;20171;-45
2023/04/17 08:56:03;;;;;;;26.15;18.50;;;12.30;99.90;;;;;;4990905;28;20203;-45
2023/04/17 08:58:32;;;;;;;25.10;18.73;;;12.20;99.90;;;;;;4990838;28;20176;-44
2023/04/17 09:01:07;;;;;;;25.42;19.20;;;12.30;99.90;;;;;;4984969;28;20166;-44
2023/04/17 09:03:44;;;;;;;24.08;17.42;;;12.10;99.90;;;;;;4983696;28;20183;-45
2023/04/17 09:06:11;;;;;;;23.25;17.55;;;12.10;99.90;;;;;;4990024;28;20239;-45
2023/04/17 09:08:37;;;;;;;24.23;17.65;;;12.20;99.90;;;;;;4983866;28;20267;-44
2023/04/17 09:11:04;;;;;;;22.00;17.27;;;12.20;99.90;;;;;;4970798;28;20180;-44
2023/04/17 09:13:38;;;;;;;25.10;18.15;;;12.10;99.90;;;;;;4970988;28;20256;-45
2023/04/17 09:16:08;;;;;;;26.02;18.38;;;12.30;99.90;;;;;;4970742;28;20162;-45
2023/04/17 09:18:35;;;;;;;23.90;18.90;;;12.60;99.90;;;;;;4970737;28;20197;-44
2023/04/17 09:21:01;;;;;;;21.98;16.27;;;;;;;;;;4970844;28;20210;-44
2023/04/17 09:23:29;;;;;;;23.17;18.92;;;12.40;99.90;;;;;;4982156;28;20168;-45
2023/04/17 09:26:09;;;;;;;26.10;19.83;;;12.40;99.90;;;;;;4990134;28;20285;-44
2023/04/17 09:28:35;;;;;;;24.42;17.60;;;12.50;99.90;;;;;;4990058;28;20169;-44
2023/04/17 09:31:04;;;;;;;24.30;17.95;;;12.70;99.90;;;;;;4989999;28;20628;-45
2023/04/17 09:33:30;;;;;;;26.92;20.10;;;;;;;;;;4990058;28;20629;-44
2023/04/17 09:36:20;;;;;;;22.92;18.88;;;13.30;99.90;;;;;;4990060;28;20172;-44
2023/04/17 09:38:46;;;;;;;23.42;18.65;;;13.40;99.90;;;;;;4990565;28;20181;-45
2023/04/17 09:41:40;;;;;;;26.40;17.67;;;13.20;99.90;;;;;;4989925;28;20179;-45
2023/04/17 09:44:06;;;;;;;24.05;17.67;;;13.30;99.90;;;;;;5002406;28;20177;-44
2023/04/17 09:46:34;;;;;;;24.58;19.38;;;13.50;99.90;;;;;;4989934;28;20314;-44
2023/04/17 09:49:06;;;;;;;28.42;19.40;;;13.90;99.90;;;;;;4989801;28;20168;-45
2023/04/17 09:51:32;;;;;;;23.08;18.67;;;14.20;99.90;;;;;;4990032;28;20177;-44
2023/04/17 09:53:59;;;;;;;23.55;18.42;;;14.30;99.90;;;;;;4973870;28;20515;-45
2023/04/17 09:56:28;;;;;;;22.90;18.75;;;14.40;99.90;;;;;;4970166;28;20177;-45
2023/04/17 09:58:54;;;;;;;22.02;17.05;;;14.40;99.90;;;;;;4970546;28;20170;-45
2023/04/17 10:01:20;;;;;;;19.67;15.82;;;;;;;;;;4970539;28;20181;-45
2023/04/17 10:03:46;;;;;;;21.10;18.77;;;14.50;99.90;;;;;;4969964;28;20174;-44
2023/04/17 10:06:14;;;;;;;21.90;18.30;;;14.90;99.90;;;;;;4969487;28;20204;-44
2023/04/17 10:08:40;;;;;;;22.05;16.38;;;14.70;99.90;;;;;;4970182;28;20228;-44
2023/04/17 10:11:07;;;;;;;20.23;15.63;;;14.80;99.90;;;;;;4969806;28;20166;-45
2023/04/17 10:13:37;;;;;;;21.08;16.42;;;14.80;99.90;;;;;;4970135;28;20264;-45
2023/04/17 10:16:03;;;;;;;19.95;16.38;;;;;;;;;;4970042;28;20173;-45
2023/04/17 10:18:29;;;;;;;21.05;14.73;;;;;;;;;;4969822;28;20741;-44
2023/04/17 10:20:55;;;;;;;22.70;16.08;;;15.20;99.90;;;;;;4969960;28;20708;-45
2023/04/17 10:23:32;;;;;;;16.60;14.43;;;15.50;99.90;;;;;;4980087;28;20281;-44
2023/04/17 10:26:28;;;;;;;21.25;13.68;;;15.70;99.90;;;;;;4988574;28;20208;-45
2023/04/17 10:28:56;;;;;;;24.02;15.07;;;15.40;99.90;;;;;;4989140;28;20176;-44
2023/04/17 10:31:42;;;;;;;17.55;14.60;;;15.30;99.90;;;;;;4989680;28;20563;-45
2023/04/17 10:34:38;;;;;;;15.88;12.68;;;15.40;99.90;;;;;;4989148;28;20181;-47
2023/04/17 10:37:04;;;;;;;15.18;11.75;;;;;;;;;;4989614;28;20177;-44
2023/04/17 10:39:58;;;;;;;15.40;12.93;;;15.80;99.90;;;;;;4989286;28;20172;-45
2023/04/17 10:42:24;;;;;;;15.88;10.63;;;15.00;99.90;;;;;;5010708;28;20209;-45
2023/04/17 10:44:55;;;;;;;13.45;10.15;;;15.00;99.90;;;;;;5071618;28;20204;-45
2023/04/17 10:47:21;;;;;;;12.98;9.68;;;15.00;99.90;;;;;;5071404;28;20657;-44
2023/04/17 10:49:55;;;;;;;11.68;10.27;;;15.10;99.90;;;;;;5071832;28;20177;-45
2023/04/17 10:52:39;;;;;;;12.77;10.73;;;15.30;99.90;;;;;;5057369;28;20318;-45
2023/04/17 10:55:06;;;;;;;14.15;10.82;;;15.30;99.90;;;;;;4969668;28;20190;-44
2023/04/17 10:58:02;;;;;;;15.98;11.02;;;15.20;99.90;;;;;;4969943;28;20178;-44
2023/04/17 11:00:35;;;;;;;13.25;10.70;;;15.50;99.90;;;;;;4969599;28;20239;-44
2023/04/17 11:03:02;;;;;;;13.38;9.10;;;;;;;;;;4969873;28;20602;-44
2023/04/17 11:05:30;;;;;;;13.57;10.18;;;15.50;99.90;;;;;;4969346;28;20172;-45
2023/04/17 11:07:56;;;;;;;15.10;9.27;;;;;;;;;;4969146;28;20216;-45
2023/04/17 11:10:22;;;;;;;11.82;9.60;;;15.80;99.90;;;;;;4969459;28;20266;-44
2023/04/17 11:12:52;;;;;;;12.93;9.80;;;15.80;99.90;;;;;;4970135;28;20177;-45
2023/04/17 11:15:18;;;;;;;14.35;9.32;;;;;;;;;;4969534;28;20178;-44
2023/04/17 11:17:47;;;;;;;13.98;10.10;;;15.90;99.90;;;;;;4969266;28;20181;-44
2023/04/17 11:20:16;;;;;;;15.90;8.57;;;15.50;99.90;;;;;;4969390;28;20165;-44
2023/04/17 11:22:42;;;;;;;12.60;9.63;;;;;;;;;;4976118;28;20606;-45
2023/04/17 11:25:08;;;;;;;14.57;9.40;;;15.90;99.90;;;;;;4988368;28;20632;-44
2023/04/17 11:27:33;;;;;;;12.63;9.55;;;15.80;99.90;;;;;;4988471;28;20213;-44
2023/04/17 11:30:00;;;;;;;11.88;9.05;;;;;;;;;;4987883;28;20169;-44
2023/04/17 11:32:26;;;;;;;9.48;7.93;;;;;;;;;;4988572;28;20184;-43
2023/04/17 11:34:53;;;;;;;13.32;9.30;;;15.50;99.90;;;;;;4988296;28;20194;-45
2023/04/17 11:37:19;;;;;;;12.32;10.25;;;15.60;99.90;;;;;;4988854;28;20180;-44
2023/04/17 11:39:44;;;;;;;12.43;9.05;;;16.20;99.90;;;;;;4988373;28;20165;-45
2023/04/17 11:42:10;;;;;;;15.95;10.55;;;15.80;99.90;;;;;;4988222;28;20241;-45
2023/04/17 11:44:35;;;;;;;10.07;8.85;;;15.70;99.90;;;;;;4987932;28;20177;-45
2023/04/17 11:47:02;;;;;;;9.68;7.63;;;;;;;;;;4987699;28;20299;-44
2023/04/17 11:49:29;;;;;;;15.52;10.05;;;;;;;;;;4988293;28;20177;-45
2023/04/17 11:51:58;;;;;;;12.45;9.65;;;15.90;99.90;;;;;;4987108;28;20176;-44
2023/04/17 11:54:27;;;;;;;14.27;8.32;;;16.00;99.90;;;;;;4972759;28;20656;-45
2023/04/17 11:57:07;;;;;;;10.00;8.50;;;16.10;99.90;;;;;;4987999;28;20169;-46
2023/04/17 11:59:38;;;;;;;12.57;8.48;;;15.80;99.90;;;;;;4987811;28;20191;-44
2023/04/17 12:02:06;;;;;;;12.30;8.90;;;15.60;99.90;;;;;;4987952;28;20173;-45
2023/04/17 12:04:33;;;;;;;11.38;9.57;;;16.10;99.90;;;;;;5017301;28;20268;-44
2023/04/17 12:07:23;;;;;;;12.90;8.90;;;16.00;99.90;;;;;;5005750;28;20216;-46
2023/04/17 12:09:56;;;;;;;14.65;10.75;;;16.70;99.90;;;;;;4968744;28;20215;-44
2023/04/17 12:12:22;;;;;;;15.35;9.65;;;16.50;99.90;;;;;;4968518;28;20184;-45
2023/04/17 12:14:47;;;;;;;12.95;9.85;;;;;;;;;;4968670;28;20170;-44
2023/04/17 12:17:14;;;;;;;12.05;9.02;;;;;;;;;;4968509;28;20674;-44
2023/04/17 12:19:40;;;;;;;13.00;8.75;;;;;;;;;;4968802;28;20170;-45
2023/04/17 12:22:06;;;;;;;9.32;7.93;;;;;;;;;;4968621;28;20180;-44
2023/04/17 12:24:31;;;;;;;12.45;8.73;;;16.70;99.90;;;;;;4968597;28;20618;-44
2023/04/17 12:27:00;;;;;;;11.98;8.45;;;17.10;99.90;;;;;;4967855;28;20659;-44
2023/04/17 12:29:26;;;;;;;11.90;8.27;;;;;;;;;;4967953;28;20177;-44
2023/04/17 12:31:52;;;;;;;11.98;6.80;;;;;;;;;;4968312;28;20189;-48
2023/04/17 12:34:17;;;;;;;10.20;7.57;;;16.90;99.90;;;;;;4975836;28;20181;-47
2023/04/17 12:36:43;;;;;;;9.27;7.40;;;16.60;99.90;;;;;;4987637;28;20208;-47
2023/04/17 12:39:09;;;;;;;10.65;8.07;;;16.70;99.90;;;;;;4987617;28;20169;-45
2023/04/17 12:41:34;;;;;;;10.18;7.95;;;17.20;99.90;;;;;;4987734;28;20208;-46
2023/04/17 12:44:02;;;;;;;14.13;8.50;;;17.40;99.90;;;;;;4987515;28;20195;-45
2023/04/17 12:46:28;;;;;;;11.10;7.72;;;;;;;;;;4987437;28;20668;-45
2023/04/17 12:48:57;;;;;;;10.70;7.90;;;17.00;99.90;;;;;;4987925;28;20548;-45
2023/04/17 12:51:23;;;;;;;11.48;8.45;;;;;;;;;;4987409;28;20176;-44
2023/04/17 12:53:51;;;;;;;11.70;7.72;;;16.40;99.90;;;;;;4982058;28;20189;-45